createdAt,value
2019-06-26T00:03:00.763Z,101618.96
2019-06-26T00:07:55.697Z,101619.52
2019-06-26T00:12:50.526Z,101617.77
2019-06-26T00:17:45.297Z,101616.09
2019-06-26T00:22:40.136Z,101615.26
2019-06-26T00:27:34.919Z,101619.91
2019-06-26T00:32:29.723Z,101616.89
2019-06-26T00:37:24.532Z,101615.67
2019-06-26T00:42:19.311Z,101612.30
2019-06-26T00:47:14.123Z,101611.62
2019-06-26T00:52:08.964Z,101613.14
2019-06-26T00:57:03.817Z,101613.33
2019-06-26T01:01:58.680Z,101609.89
2019-06-26T01:06:53.516Z,101612.27
2019-06-26T01:11:48.370Z,101605.62
2019-06-26T01:16:43.296Z,101609.34
2019-06-26T01:21:38.124Z,101603.10
2019-06-26T01:26:33.030Z,101604.03
2019-06-26T01:31:28.013Z,101597.26
2019-06-26T01:36:22.853Z,101603.64
2019-06-26T01:41:17.760Z,101607.30
2019-06-26T01:46:12.548Z,101603.30
2019-06-26T01:51:07.417Z,101603.39
2019-06-26T01:56:02.231Z,101602.14
2019-06-26T02:00:57.028Z,101604.91
2019-06-26T02:05:51.879Z,101600.91
2019-06-26T02:10:46.756Z,101597.40
2019-06-26T02:15:41.604Z,101600.63
2019-06-26T02:20:36.540Z,101597.98
2019-06-26T02:25:31.418Z,101597.67
2019-06-26T02:30:26.196Z,101592.80
2019-06-26T02:35:20.955Z,101578.85
2019-06-26T02:40:16.328Z,101581.70
2019-06-26T02:45:11.632Z,101577.75
2019-06-26T02:50:06.675Z,101569.29
2019-06-26T02:55:01.412Z,101566.64
2019-06-26T02:59:56.201Z,101559.88
2019-06-26T03:04:51.138Z,101549.98
2019-06-26T03:09:45.960Z,101546.98
2019-06-26T03:14:40.713Z,101554.70
2019-06-26T03:19:35.486Z,101570.98
2019-06-26T03:24:30.297Z,101564.63
2019-06-26T03:29:25.283Z,101566.39
2019-06-26T03:34:20.089Z,101570.91
2019-06-26T03:39:14.864Z,101564.12
2019-06-26T03:44:09.746Z,101573.66
2019-06-26T03:49:04.707Z,101589.49
2019-06-26T03:53:59.487Z,101588.11
2019-06-26T03:58:54.284Z,101587.68
2019-06-26T04:03:49.136Z,101594.48
2019-06-26T04:08:43.921Z,101598.98
2019-06-26T04:13:38.684Z,101606.58
2019-06-26T04:18:33.475Z,101605.16
2019-06-26T04:23:28.269Z,101596.93
2019-06-26T04:28:23.053Z,101599.17
2019-06-26T04:33:17.861Z,101594.09
2019-06-26T04:38:12.705Z,101593.97
2019-06-26T04:43:07.495Z,101593.28
2019-06-26T04:48:02.585Z,101594.45
2019-06-26T04:52:57.345Z,101588.58
2019-06-26T04:57:52.158Z,101587.37
2019-06-26T05:02:46.927Z,101598.27
2019-06-26T05:07:41.726Z,101587.77
2019-06-26T05:12:36.561Z,101586.52
2019-06-26T05:17:31.339Z,101588.00
2019-06-26T05:22:26.115Z,101587.25
2019-06-26T05:27:21.027Z,101579.67
2019-06-26T05:32:15.847Z,101585.38
2019-06-26T05:37:10.629Z,101580.36
2019-06-26T05:42:06.811Z,101585.90
2019-06-26T05:47:01.754Z,101586.31
2019-06-26T05:51:56.547Z,101588.61
2019-06-26T05:56:51.331Z,101588.33
2019-06-26T06:01:46.238Z,101584.56
2019-06-26T06:06:42.359Z,101584.48
2019-06-26T06:11:37.277Z,101591.86
2019-06-26T06:16:46.229Z,101585.95
2019-06-26T06:21:28.713Z,101595.66
2019-06-26T06:26:25.281Z,101592.45
2019-06-26T06:31:20.038Z,101599.11
2019-06-26T06:36:14.826Z,101594.53
2019-06-26T06:41:09.630Z,101588.09
2019-06-26T06:46:04.466Z,101593.77
2019-06-26T06:50:59.322Z,101596.48
2019-06-26T06:55:54.080Z,101598.31
2019-06-26T07:00:48.999Z,101597.03
2019-06-26T07:05:43.765Z,101600.91
2019-06-26T07:10:38.576Z,101596.50
2019-06-26T07:15:33.471Z,101593.44
2019-06-26T07:20:28.372Z,101596.73
2019-06-26T07:25:23.238Z,101602.00
2019-06-26T07:30:18.507Z,101600.09
2019-06-26T07:35:13.362Z,101599.84
2019-06-26T07:40:08.298Z,101598.49
2019-06-26T07:45:03.233Z,101603.97
2019-06-26T07:49:58.131Z,101610.86
2019-06-26T07:54:52.907Z,101604.00
2019-06-26T07:59:47.882Z,101611.02
2019-06-26T08:04:42.690Z,101607.98
2019-06-26T08:09:37.498Z,101606.70
2019-06-26T08:14:32.279Z,101614.78
2019-06-26T08:19:27.151Z,101607.41
2019-06-26T08:24:21.921Z,101610.11
2019-06-26T08:29:16.887Z,101609.78
2019-06-26T08:34:11.790Z,101609.37
2019-06-26T08:39:07.663Z,101618.77
2019-06-26T08:44:02.439Z,101616.77
2019-06-26T08:48:57.216Z,101620.09
2019-06-26T08:53:51.969Z,101614.37
2019-06-26T08:58:46.927Z,101613.05
2019-06-26T09:03:42.620Z,101616.75
2019-06-26T09:08:37.385Z,101614.16
2019-06-26T09:13:32.302Z,101617.60
2019-06-26T09:18:35.604Z,101616.23
2019-06-26T09:23:23.775Z,101613.20
2019-06-26T09:28:18.650Z,101611.36
2019-06-26T09:33:13.451Z,101607.41
2019-06-26T09:38:08.297Z,101599.17
2019-06-26T09:43:03.082Z,101597.98
2019-06-26T09:47:57.867Z,101597.00
2019-06-26T09:52:52.840Z,101596.89
2019-06-26T09:57:47.718Z,101587.30
2019-06-26T10:02:42.586Z,101582.31
2019-06-26T10:07:37.420Z,101587.70
2019-06-26T10:12:32.216Z,101586.78
2019-06-26T10:17:27.008Z,101582.20
2019-06-26T10:22:21.825Z,101581.01
2019-06-26T10:27:16.838Z,101578.63
2019-06-26T10:32:11.727Z,101582.80
2019-06-26T10:37:06.617Z,101577.67
2019-06-26T10:42:01.431Z,101575.56
2019-06-26T10:46:56.291Z,101573.66
2019-06-26T10:51:51.177Z,101564.80
2019-06-26T10:56:45.979Z,101576.41
2019-06-26T11:01:40.825Z,101571.85
2019-06-26T11:06:37.226Z,101564.75
2019-06-26T11:11:32.212Z,101554.54
2019-06-26T11:16:27.093Z,101552.31
2019-06-26T11:21:22.039Z,101553.82
2019-06-26T11:26:16.896Z,101539.89
2019-06-26T11:31:11.879Z,101537.50
2019-06-26T11:36:06.654Z,101539.29
2019-06-26T11:41:02.071Z,101545.67
2019-06-26T11:45:56.956Z,101531.22
2019-06-26T11:50:51.786Z,101519.75
2019-06-26T11:55:46.812Z,101518.33
2019-06-26T12:00:41.847Z,101515.31
2019-06-26T12:05:36.725Z,101527.75
2019-06-26T12:10:31.514Z,101523.32
2019-06-26T12:15:26.446Z,101514.25
2019-06-26T12:20:21.782Z,101520.55
2019-06-26T12:25:16.932Z,101523.16
2019-06-26T12:30:11.896Z,101520.86
2019-06-26T12:35:06.941Z,101525.73
2019-06-26T12:40:01.759Z,101525.77
2019-06-26T12:44:56.707Z,101521.58
2019-06-26T12:49:51.532Z,101516.31
2019-06-26T12:54:46.380Z,101514.08
2019-06-26T12:59:55.943Z,101525.45
2019-06-26T13:04:38.326Z,101521.95
2019-06-26T13:09:35.439Z,101524.78
2019-06-26T13:14:31.287Z,101519.17
2019-06-26T13:19:26.178Z,101515.22
2019-06-26T13:24:21.092Z,101512.14
2019-06-26T13:29:15.920Z,101512.98
2019-06-26T13:34:10.709Z,101499.45
2019-06-26T13:39:06.803Z,101507.18
2019-06-26T13:44:01.617Z,101502.63
2019-06-26T13:48:56.393Z,101502.77
2019-06-26T13:53:51.207Z,101497.38
2019-06-26T13:58:45.983Z,101498.98
2019-06-26T14:03:40.807Z,101494.55
2019-06-26T14:08:35.584Z,101492.92
2019-06-26T14:13:30.522Z,101489.51
2019-06-26T14:18:25.358Z,101478.66
2019-06-26T14:23:20.376Z,101474.73
2019-06-26T14:28:15.148Z,101473.84
2019-06-26T14:33:09.959Z,101474.19
2019-06-26T14:38:04.823Z,101478.14
2019-06-26T14:42:59.620Z,101470.67
2019-06-26T14:47:54.554Z,101469.16
2019-06-26T14:52:49.447Z,101471.44
2019-06-26T14:57:44.236Z,101475.75
2019-06-26T15:02:39.519Z,101470.70
2019-06-26T15:07:34.990Z,101463.59
2019-06-26T15:12:30.013Z,101466.39
2019-06-26T15:17:24.793Z,101469.73
2019-06-26T15:22:19.649Z,101469.23
2019-06-26T15:27:14.446Z,101469.38
2019-06-26T15:32:09.266Z,101454.32
2019-06-26T15:37:04.158Z,101454.18
2019-06-26T15:41:59.127Z,101446.61
2019-06-26T15:46:53.924Z,101440.52
2019-06-26T15:51:48.769Z,101447.86
2019-06-26T15:56:43.574Z,101448.86
2019-06-26T16:01:38.385Z,101445.52
2019-06-26T16:06:33.217Z,101446.91
2019-06-26T16:11:28.177Z,101462.25
2019-06-26T16:16:23.578Z,101459.80
2019-06-26T16:21:18.516Z,101452.35
2019-06-26T16:26:20.106Z,101463.16
2019-06-26T16:31:14.963Z,101467.25
2019-06-26T16:36:10.015Z,101466.16
2019-06-26T16:41:04.975Z,101463.86
2019-06-26T16:45:59.734Z,101471.31
2019-06-26T16:50:54.630Z,101461.91
2019-06-26T16:55:49.425Z,101474.73
2019-06-26T17:00:44.330Z,101480.48
2019-06-26T17:05:39.338Z,101485.75
2019-06-26T17:10:34.335Z,101486.86
2019-06-26T17:15:29.246Z,101491.70
2019-06-26T17:20:24.006Z,101492.27
2019-06-26T17:25:18.909Z,101501.81
2019-06-26T17:30:14.070Z,101505.07
2019-06-26T17:35:09.992Z,101510.78
2019-06-26T17:40:05.955Z,101513.36
2019-06-26T17:45:00.717Z,101521.30
2019-06-26T17:49:55.478Z,101519.08
2019-06-26T17:54:50.347Z,101521.36
2019-06-26T17:59:45.214Z,101525.75
2019-06-26T18:04:39.989Z,101537.05
2019-06-26T18:09:34.791Z,101540.70
2019-06-26T18:14:29.611Z,101545.73
2019-06-26T18:19:24.386Z,101554.23
2019-06-26T18:24:19.227Z,101558.22
2019-06-26T18:29:14.069Z,101563.05
2019-06-26T18:34:08.882Z,101561.95
2019-06-26T18:39:05.248Z,101576.02
2019-06-26T18:44:00.101Z,101583.72
2019-06-26T18:48:54.906Z,101581.12
2019-06-26T18:53:53.601Z,101590.56
2019-06-26T18:58:46.268Z,101594.68
2019-06-26T19:03:41.071Z,101597.38
2019-06-26T19:08:36.231Z,101601.38
2019-06-26T19:13:31.041Z,101610.88
2019-06-26T19:18:25.886Z,101623.16
2019-06-26T19:23:20.689Z,101627.81
2019-06-26T19:28:15.569Z,101634.25
2019-06-26T19:33:10.425Z,101648.09
2019-06-26T19:38:05.324Z,101659.17
2019-06-26T19:43:00.151Z,101657.60
2019-06-26T19:47:55.035Z,101668.42
2019-06-26T19:52:49.981Z,101669.98
2019-06-26T19:57:44.771Z,101675.36
2019-06-26T20:02:39.860Z,101675.55
2019-06-26T20:07:34.925Z,101682.14
2019-06-26T20:12:29.975Z,101679.98
2019-06-26T20:17:24.928Z,101676.17
2019-06-26T20:22:20.166Z,101678.83
2019-06-26T20:27:14.973Z,101685.38
2019-06-26T20:32:09.783Z,101689.69
2019-06-26T20:37:04.696Z,101705.05
2019-06-26T20:41:59.486Z,101694.17
2019-06-26T20:46:54.782Z,101691.25
2019-06-26T20:51:49.570Z,101696.05
2019-06-26T20:56:44.421Z,101704.91
2019-06-26T21:01:39.204Z,101708.99
2019-06-26T21:06:34.167Z,101733.84
2019-06-26T21:11:29.494Z,101732.94
2019-06-26T21:16:24.470Z,101742.16
2019-06-26T21:21:19.349Z,101744.03
2019-06-26T21:26:14.191Z,101731.09
2019-06-26T21:31:08.958Z,101747.08
2019-06-26T21:36:04.757Z,101745.27
2019-06-26T21:40:59.606Z,101754.30
2019-06-26T21:45:54.615Z,101764.61
2019-06-26T21:50:49.414Z,101775.16
2019-06-26T21:55:44.308Z,101772.89
2019-06-26T22:00:40.265Z,101777.53
2019-06-26T22:05:35.167Z,101781.67
2019-06-26T22:10:29.985Z,101790.23
2019-06-26T22:15:24.766Z,101796.55
2019-06-26T22:20:19.706Z,101798.41
2019-06-26T22:25:14.764Z,101795.96
2019-06-26T22:30:09.884Z,101806.23
2019-06-26T22:35:05.187Z,101805.14
2019-06-26T22:40:00.024Z,101804.57
2019-06-26T22:44:54.811Z,101808.05
2019-06-26T22:49:49.603Z,101802.34
2019-06-26T22:54:44.554Z,101805.34
2019-06-26T22:59:39.470Z,101810.08
2019-06-26T23:04:34.284Z,101819.22
2019-06-26T23:09:29.068Z,101822.08
2019-06-26T23:14:23.836Z,101832.91
2019-06-26T23:19:18.648Z,101844.53
2019-06-26T23:24:13.530Z,101841.63
2019-06-26T23:29:08.339Z,101850.14
2019-06-26T23:34:03.129Z,101853.00
2019-06-26T23:38:58.088Z,101842.82
2019-06-26T23:43:52.900Z,101865.28
2019-06-26T23:48:47.696Z,101865.31
2019-06-26T23:53:42.449Z,101871.06
2019-06-26T23:58:37.268Z,101877.27
